Time;durP1;ratioP1;P1;durP2;ratioP2;P2;SDS_P1;SDS_P2;PMS_P1;PMS_P2;Temp;Humidity;BMP_temperature;BMP_pressure;BME280_temperature;BME280_humidity;BME280_pressure;Samples;Min_cycle;Max_cycle;Signal;HPM_P1;HPM_P2
2022/08/06 00:00:23;;;;;;;2.70;1.93;;;15.40;99.90;;;;;;5063680;28;20247;-75
2022/08/06 00:02:53;;;;;;;4.63;1.70;;;15.40;99.90;;;;;;5063445;28;20221;-76
2022/08/06 00:05:20;;;;;;;5.73;1.87;;;15.50;99.90;;;;;;5065435;28;20209;-74
2022/08/06 00:08:00;;;;;;;4.17;1.53;;;15.50;99.90;;;;;;5064654;28;20239;-74
2022/08/06 00:10:28;;;;;;;6.10;1.87;;;15.40;99.90;;;;;;5066925;28;20192;-73
2022/08/06 00:12:58;;;;;;;7.23;1.93;;;15.30;99.90;;;;;;5066248;28;20229;-74
2022/08/06 00:15:28;;;;;;;4.43;1.80;;;15.40;99.90;;;;;;5068677;28;20204;-74
2022/08/06 00:18:15;;;;;;;5.70;1.80;;;15.30;99.90;;;;;;5063006;28;20710;-74
2022/08/06 00:20:44;;;;;;;5.77;1.93;;;15.30;99.90;;;;;;5066620;28;20211;-75
2022/08/06 00:23:12;;;;;;;5.57;1.90;;;15.20;99.90;;;;;;5064942;28;20234;-74
2022/08/06 00:25:45;;;;;;;8.73;1.93;;;15.20;99.90;;;;;;5064198;28;20278;-75
2022/08/06 00:28:24;;;;;;;4.27;1.77;;;15.20;99.90;;;;;;5064233;28;20212;-74
2022/08/06 00:31:00;;;;;;;4.57;1.70;;;15.10;99.90;;;;;;5062759;28;20216;-73
2022/08/06 00:33:36;;;;;;;6.07;1.77;;;15.10;99.90;;;;;;5064002;28;20298;-73
2022/08/06 00:36:24;;;;;;;7.43;2.33;;;15.00;99.90;;;;;;5061696;28;20223;-74
2022/08/06 00:38:56;;;;;;;3.50;1.80;;;14.90;99.90;;;;;;5064172;28;20285;-73
2022/08/06 00:41:25;;;;;;;5.90;1.87;;;14.90;99.90;;;;;;5063904;28;20295;-73
2022/08/06 00:43:53;;;;;;;5.77;1.90;;;14.90;99.90;;;;;;5065935;28;20231;-74
2022/08/06 00:46:21;;;;;;;8.17;1.90;;;14.80;99.90;;;;;;5064803;28;20706;-74
2022/08/06 00:48:49;;;;;;;4.03;2.17;;;14.80;99.90;;;;;;5063515;28;21343;-75
2022/08/06 00:51:21;;;;;;;5.83;1.87;;;14.80;99.90;;;;;;5063919;28;20258;-74
2022/08/06 00:53:50;;;;;;;4.30;1.90;;;14.70;99.90;;;;;;5062845;28;20258;-74
2022/08/06 00:56:23;;;;;;;3.30;1.90;;;14.70;99.90;;;;;;5064313;28;20212;-72
2022/08/06 00:58:55;;;;;;;3.83;1.70;;;14.60;99.90;;;;;;5063831;28;20502;-73
2022/08/06 01:01:30;;;;;;;4.73;1.90;;;14.60;99.90;;;;;;5062186;28;20208;-74
2022/08/06 01:04:15;;;;;;;4.13;1.80;;;14.60;99.90;;;;;;5065530;28;20200;-74
2022/08/06 01:06:42;;;;;;;6.53;2.33;;;14.50;99.90;;;;;;5063182;28;20208;-74
2022/08/06 01:09:24;;;;;;;2.60;1.90;;;14.50;99.90;;;;;;5065546;28;20205;-74
2022/08/06 01:11:50;;;;;;;9.80;2.13;;;14.40;99.90;;;;;;5065452;28;20294;-74
2022/08/06 01:14:18;;;;;;;6.47;2.10;;;14.40;99.90;;;;;;5065354;28;20223;-73
2022/08/06 01:17:26;;;;;;;4.30;2.07;;;14.40;99.90;;;;;;5064212;28;20703;-75
2022/08/06 01:20:12;;;;;;;6.53;2.13;;;14.40;99.90;;;;;;5062172;28;20683;-74
2022/08/06 01:23:18;;;;;;;5.50;2.20;;;14.30;99.90;;;;;;5064166;28;20289;-72
2022/08/06 01:26:01;;;;;;;5.83;2.00;;;14.30;99.90;;;;;;5063701;28;20660;-73
2022/08/06 01:28:53;;;;;;;6.47;2.40;;;14.30;99.90;;;;;;5063620;28;20250;-74
2022/08/06 01:31:36;;;;;;;4.93;1.90;;;14.20;99.90;;;;;;5052828;28;20247;-73
2022/08/06 01:34:10;;;;;;;6.20;1.97;;;14.20;99.90;;;;;;5062079;28;20265;-73
2022/08/06 01:36:47;;;;;;;4.33;2.37;;;14.20;99.90;;;;;;5063865;28;20311;-74
2022/08/06 01:39:18;;;;;;;4.20;1.83;;;14.10;99.90;;;;;;5063263;28;20212;-74
2022/08/06 01:42:07;;;;;;;3.97;2.17;;;14.10;99.90;;;;;;5061399;28;20261;-74
2022/08/06 01:44:39;;;;;;;4.83;2.10;;;14.10;99.90;;;;;;5065033;28;20664;-74
2022/08/06 01:47:16;;;;;;;2.83;1.90;;;14.10;99.90;;;;;;5063932;28;20585;-74
2022/08/06 01:49:51;;;;;;;3.77;2.23;;;14.10;99.90;;;;;;5062338;28;20236;-73
2022/08/06 01:52:34;;;;;;;4.77;2.13;;;14.00;99.90;;;;;;5062276;28;20695;-74
2022/08/06 01:55:08;;;;;;;4.80;2.70;;;14.00;99.90;;;;;;5060130;28;20206;-74
2022/08/06 01:57:39;;;;;;;2.10;1.90;;;14.00;99.90;;;;;;5064257;28;20223;-73
2022/08/06 02:00:27;;;;;;;1.90;1.70;;;14.00;99.90;;;;;;5065116;28;20758;-74
2022/08/06 02:02:59;;;;;;;4.50;2.37;;;14.00;99.90;;;;;;5060559;28;20220;-73
2022/08/06 02:05:27;;;;;;;7.07;2.23;;;13.90;99.90;;;;;;5064421;28;20421;-74
2022/08/06 02:08:00;;;;;;;4.40;1.90;;;13.90;99.90;;;;;;5063972;28;20704;-74
2022/08/06 02:10:49;;;;;;;7.97;2.13;;;13.90;99.90;;;;;;5063712;28;20223;-75
2022/08/06 02:13:19;;;;;;;5.87;2.07;;;13.90;99.90;;;;;;5063584;28;20550;-75
2022/08/06 02:15:47;;;;;;;4.33;2.00;;;13.80;99.90;;;;;;5054822;28;20640;-76
2022/08/06 02:18:28;;;;;;;5.07;2.57;;;13.80;99.90;;;;;;5052697;28;20301;-75
2022/08/06 02:21:07;;;;;;;4.40;2.10;;;13.80;99.90;;;;;;5052255;28;20199;-74
2022/08/06 02:23:46;;;;;;;2.83;2.10;;;13.80;99.90;;;;;;5064712;28;20206;-73
2022/08/06 02:26:18;;;;;;;6.63;2.50;;;13.70;99.90;;;;;;5063631;28;20680;-74
2022/08/06 02:28:48;;;;;;;5.80;2.33;;;13.70;99.90;;;;;;5064659;28;20285;-74
2022/08/06 02:31:16;;;;;;;6.17;2.13;;;13.80;99.90;;;;;;5064243;28;20197;-74
2022/08/06 02:33:48;;;;;;;3.57;2.13;;;13.80;99.90;;;;;;5064502;28;20230;-72
2022/08/06 02:36:46;;;;;;;5.60;2.10;;;13.80;99.90;;;;;;5061663;28;20205;-74
2022/08/06 02:39:31;;;;;;;10.63;2.53;;;13.70;99.90;;;;;;5061299;28;20731;-74
2022/08/06 02:42:39;;;;;;;4.80;2.30;;;13.80;99.90;;;;;;5062890;28;20216;-74
2022/08/06 02:45:39;;;;;;;3.37;2.40;;;13.80;99.90;;;;;;5064838;28;20200;-75
2022/08/06 02:48:14;;;;;;;3.43;2.00;;;13.80;99.90;;;;;;5063897;28;20235;-75
2022/08/06 02:51:01;;;;;;;5.53;2.13;;;13.90;99.90;;;;;;5068460;28;20250;-74
2022/08/06 02:53:45;;;;;;;5.33;2.87;;;14.00;99.90;;;;;;5067486;28;20207;-74
2022/08/06 02:56:32;;;;;;;6.23;2.20;;;14.00;99.90;;;;;;5067184;28;20217;-73
2022/08/06 02:59:09;;;;;;;3.87;2.10;;;14.10;99.90;;;;;;5065229;28;20300;-76
2022/08/06 03:01:45;;;;;;;2.87;2.17;;;14.20;99.90;;;;;;5067543;28;20231;-75
2022/08/06 03:04:18;;;;;;;5.70;2.47;;;14.30;99.90;;;;;;5065281;28;20196;-75
2022/08/06 03:06:53;;;;;;;4.80;2.23;;;14.30;99.90;;;;;;5064592;28;20962;-74
2022/08/06 03:09:22;;;;;;;5.27;2.10;;;14.40;99.90;;;;;;5067866;28;20303;-74
2022/08/06 03:11:52;;;;;;;6.27;2.00;;;14.50;99.90;;;;;;5068450;28;20236;-74
2022/08/06 03:14:21;;;;;;;3.00;2.10;;;14.50;99.90;;;;;;5069385;28;20771;-74
2022/08/06 03:17:12;;;;;;;4.87;2.13;;;14.60;99.90;;;;;;5065112;28;20216;-74
2022/08/06 03:19:41;;;;;;;6.43;2.07;;;14.60;99.90;;;;;;5066391;28;20200;-73
2022/08/06 03:22:25;;;;;;;4.83;2.00;;;14.60;99.90;;;;;;5067371;28;20744;-76
2022/08/06 03:25:07;;;;;;;4.17;2.30;;;14.50;99.90;;;;;;5065052;28;20285;-74
2022/08/06 03:27:36;;;;;;;5.63;2.10;;;14.50;99.90;;;;;;5066396;28;20304;-76
2022/08/06 03:30:15;;;;;;;3.07;1.80;;;14.50;99.90;;;;;;5067239;28;20200;-74
2022/08/06 03:33:09;;;;;;;3.67;2.10;;;14.40;99.90;;;;;;5063603;28;20220;-75
2022/08/06 03:35:59;;;;;;;6.17;2.27;;;14.40;99.90;;;;;;5065233;28;20307;-73
2022/08/06 03:38:30;;;;;;;3.50;2.30;;;14.40;99.90;;;;;;5064954;28;20274;-75
2022/08/06 03:40:59;;;;;;;4.03;2.00;;;14.40;99.90;;;;;;5064064;28;20211;-74
2022/08/06 03:43:28;;;;;;;4.57;2.03;;;14.40;99.90;;;;;;5063396;28;20219;-75
2022/08/06 03:46:38;;;;;;;5.67;2.23;;;14.40;99.90;;;;;;5063442;28;20196;-75
2022/08/06 03:49:10;;;;;;;3.50;2.17;;;14.40;99.90;;;;;;5059344;28;20239;-73
2022/08/06 03:51:40;;;;;;;5.10;2.43;;;14.40;99.90;;;;;;5065239;28;20649;-75
2022/08/06 03:54:25;;;;;;;4.87;2.60;;;14.30;99.90;;;;;;5063410;28;20281;-73
2022/08/06 03:57:05;;;;;;;5.67;2.10;;;14.30;99.90;;;;;;5064007;28;20204;-74
2022/08/06 03:59:36;;;;;;;3.23;2.30;;;14.30;99.90;;;;;;5063663;28;20675;-74
2022/08/06 04:02:12;;;;;;;4.70;2.20;;;14.20;99.90;;;;;;5066062;28;20208;-74
2022/08/06 04:05:00;;;;;;;6.20;2.30;;;14.10;99.90;;;;;;5066611;28;20311;-74
2022/08/06 04:07:29;;;;;;;3.67;2.17;;;14.10;99.90;;;;;;5062892;28;20211;-72
2022/08/06 04:10:17;;;;;;;9.00;2.77;;;14.00;99.90;;;;;;5065760;28;20201;-74
2022/08/06 04:13:02;;;;;;;6.33;2.23;;;14.00;99.90;;;;;;5068564;28;20243;-74
2022/08/06 04:15:51;;;;;;;5.83;2.67;;;13.90;99.90;;;;;;5065357;28;20308;-73
2022/08/06 04:18:26;;;;;;;6.43;2.20;;;13.90;99.90;;;;;;5064694;28;20289;-75
2022/08/06 04:20:59;;;;;;;4.03;2.20;;;13.80;99.90;;;;;;5060001;28;20214;-74
2022/08/06 04:23:46;;;;;;;5.67;2.23;;;13.80;99.90;;;;;;5066640;28;20200;-75
2022/08/06 04:26:17;;;;;;;3.90;1.90;;;13.80;99.90;;;;;;5067795;28;20295;-74
2022/08/06 04:28:48;;;;;;;5.43;2.10;;;13.80;99.90;;;;;;5065279;28;20215;-75
2022/08/06 04:31:26;;;;;;;2.80;2.20;;;13.80;99.90;;;;;;5063268;28;20513;-75
2022/08/06 04:34:16;;;;;;;4.70;2.20;;;13.80;99.90;;;;;;5064908;28;20225;-75
2022/08/06 04:36:44;;;;;;;5.87;2.77;;;13.80;99.90;;;;;;5062107;28;20309;-76
2022/08/06 04:39:21;;;;;;;4.73;2.63;;;13.80;99.90;;;;;;5064746;28;20231;-75
2022/08/06 04:42:03;;;;;;;4.27;2.53;;;13.90;99.90;;;;;;5062351;28;20199;-73
2022/08/06 04:44:32;;;;;;;7.07;2.60;;;13.90;99.90;;;;;;5059285;28;20668;-74
2022/08/06 04:47:00;;;;;;;5.07;2.37;;;13.90;99.90;;;;;;5065691;28;20249;-75
2022/08/06 04:49:28;;;;;;;8.47;3.60;;;13.90;99.90;;;;;;5058449;28;20637;-75
2022/08/06 04:52:23;;;;;;;5.23;2.90;;;14.00;99.90;;;;;;5062168;28;20204;-72
2022/08/06 04:55:09;;;;;;;5.53;2.40;;;14.00;99.90;;;;;;5061510;28;20244;-75
2022/08/06 04:57:51;;;;;;;7.10;2.90;;;14.00;99.90;;;;;;5065504;28;20311;-76
2022/08/06 05:00:33;;;;;;;6.10;2.63;;;14.00;99.90;;;;;;5065225;28;20195;-74
2022/08/06 05:03:20;;;;;;;4.33;2.23;;;14.00;99.90;;;;;;5067823;28;20307;-75
2022/08/06 05:06:19;;;;;;;4.53;2.57;;;14.00;99.90;;;;;;5062781;28;20258;-76
2022/08/06 05:08:51;;;;;;;5.43;2.63;;;14.00;99.90;;;;;;5065528;28;20205;-74
2022/08/06 05:11:21;;;;;;;5.33;2.57;;;14.00;99.90;;;;;;5065022;28;20215;-75
2022/08/06 05:13:56;;;;;;;8.53;2.80;;;14.00;99.90;;;;;;5068183;28;20215;-73
2022/08/06 05:16:26;;;;;;;4.60;2.27;;;14.00;99.90;;;;;;5063607;28;20196;-74
2022/08/06 05:18:59;;;;;;;5.37;2.20;;;14.00;99.90;;;;;;5064873;28;20260;-73
2022/08/06 05:21:47;;;;;;;4.27;2.07;;;13.90;99.90;;;;;;5063458;28;20200;-75
2022/08/06 05:24:34;;;;;;;5.07;2.30;;;13.90;99.90;;;;;;5062986;28;20305;-74
2022/08/06 05:27:17;;;;;;;2.30;2.00;;;13.90;99.90;;;;;;5064556;28;20564;-75
2022/08/06 05:29:44;;;;;;;8.50;3.50;;;14.00;99.90;;;;;;5061475;28;20258;-74
2022/08/06 05:32:20;;;;;;;4.30;2.53;;;14.00;99.90;;;;;;5058507;28;20234;-74
2022/08/06 05:34:51;;;;;;;4.33;1.90;;;14.10;99.90;;;;;;5060974;28;20209;-74
2022/08/06 05:37:19;;;;;;;2.23;1.97;;;14.10;99.90;;;;;;5065324;28;20662;-75
2022/08/06 05:40:08;;;;;;;3.63;2.00;;;14.10;99.90;;;;;;5061817;28;20557;-75
2022/08/06 05:42:37;;;;;;;2.77;2.13;;;14.20;99.90;;;;;;5066807;28;20205;-74
2022/08/06 05:45:08;;;;;;;2.97;1.90;;;14.30;99.90;;;;;;5064887;28;20292;-74
2022/08/06 05:47:39;;;;;;;5.00;2.00;;;14.30;99.90;;;;;;5063735;28;20265;-75
2022/08/06 05:50:26;;;;;;;3.20;2.10;;;14.40;99.90;;;;;;5064211;28;20204;-73
2022/08/06 05:53:10;;;;;;;2.83;1.60;;;14.60;99.90;;;;;;5064574;28;20200;-74
2022/08/06 05:55:45;;;;;;;3.97;1.73;;;14.80;99.90;;;;;;5063559;28;20365;-75
2022/08/06 05:58:23;;;;;;;7.47;2.47;;;14.90;99.90;;;;;;5062503;28;20551;-76
2022/08/06 06:01:01;;;;;;;2.73;1.60;;;15.10;99.90;;;;;;5061336;28;20266;-75
2022/08/06 06:03:28;;;;;;;3.13;1.27;;;15.60;99.90;;;;;;5064225;28;20212;-76
2022/08/06 06:06:01;;;;;;;3.03;1.30;;;16.40;99.90;;;;;;5061592;28;20748;-75
2022/08/06 06:08:44;;;;;;;1.92;1.10;;;17.30;99.90;;;;;;5063585;28;20211;-74
2022/08/06 06:11:29;;;;;;;3.90;1.33;;;18.80;99.90;;;;;;5063329;28;20663;-75
2022/08/06 06:14:34;;;;;;;2.08;1.13;;;20.10;99.90;;;;;;5063054;28;20287;-76
2022/08/06 06:17:40;;;;;;;2.08;0.90;;;20.70;99.90;;;;;;5062770;28;20323;-76
2022/08/06 06:20:35;;;;;;;2.13;0.95;;;21.10;99.90;;;;;;5061930;28;20291;-77
2022/08/06 06:23:44;;;;;;;1.65;0.70;;;21.40;99.90;;;;;;5068364;28;20283;-75
2022/08/06 06:26:39;;;;;;;1.10;0.80;;;21.90;99.90;;;;;;5061192;28;20287;-77
2022/08/06 06:29:10;;;;;;;3.25;0.90;;;22.30;99.90;;;;;;5064702;28;20601;-73
2022/08/06 06:32:15;;;;;;;4.80;1.25;;;22.80;99.90;;;;;;5064852;28;20231;-77
2022/08/06 06:35:26;;;;;;;2.72;1.10;;;23.20;99.90;;;;;;5063597;28;20205;-76
2022/08/06 06:38:45;;;;;;;3.58;0.90;;;24.20;99.90;;;;;;5067563;28;20215;-77
2022/08/06 06:41:43;;;;;;;5.57;1.17;;;25.20;99.90;;;;;;5066762;28;20702;-77
2022/08/06 06:44:23;;;;;;;3.03;0.80;;;26.20;99.90;;;;;;5066570;28;20205;-76
2022/08/06 06:47:37;;;;;;;1.48;0.70;;;26.80;99.90;;;;;;5066964;28;20213;-75
2022/08/06 06:50:25;;;;;;;4.97;0.95;;;27.40;99.90;;;;;;5066170;28;20204;-76
2022/08/06 06:52:53;;;;;;;3.30;0.80;;;28.10;99.90;;;;;;5067420;28;20691;-77
2022/08/06 06:55:39;;;;;;;2.50;0.60;;;28.50;99.10;;;;;;5067297;28;20213;-77
2022/08/06 06:58:41;;;;;;;1.00;0.73;;;28.90;96.70;;;;;;5068192;28;20231;-76
2022/08/06 07:01:16;;;;;;;1.73;0.77;;;29.30;95.30;;;;;;5066245;28;20258;-76
2022/08/06 07:03:57;;;;;;;1.70;0.90;;;29.30;94.50;;;;;;5066688;28;20224;-77
2022/08/06 07:06:26;;;;;;;2.97;0.90;;;29.50;93.70;;;;;;5066082;28;20204;-77
2022/08/06 07:09:13;;;;;;;2.83;0.90;;;29.60;93.20;;;;;;5063088;28;20657;-76
2022/08/06 07:12:02;;;;;;;3.08;0.80;;;29.80;92.40;;;;;;5065197;28;20209;-78
2022/08/06 07:14:34;;;;;;;3.55;0.85;;;29.90;91.70;;;;;;5065608;28;20212;-80
2022/08/06 07:17:03;;;;;;;2.40;0.80;;;30.00;91.00;;;;;;5064240;28;20373;-79
2022/08/06 07:19:52;;;;;;;2.72;1.02;;;29.90;90.20;;;;;;5064844;28;20366;-77
2022/08/06 07:22:22;;;;;;;3.47;1.00;;;29.90;90.00;;;;;;5064474;28;20677;-76
2022/08/06 07:24:59;;;;;;;3.30;0.98;;;29.80;88.70;;;;;;5067092;28;20213;-78
2022/08/06 07:27:32;;;;;;;1.85;0.90;;;29.70;86.20;;;;;;5063540;28;20199;-77
2022/08/06 07:30:17;;;;;;;2.05;0.70;;;29.60;85.80;;;;;;5063818;28;20200;-77
2022/08/06 07:32:46;;;;;;;2.58;0.70;;;29.60;85.30;;;;;;5066496;28;20278;-77
2022/08/06 07:35:17;;;;;;;3.03;0.85;;;29.60;84.50;;;;;;5062297;28;20288;-76
2022/08/06 07:37:54;;;;;;;2.63;0.82;;;29.70;84.60;;;;;;5067537;28;20257;-78
2022/08/06 07:40:35;;;;;;;1.48;0.77;;;29.40;84.00;;;;;;5065022;28;20230;-77
2022/08/06 07:43:10;;;;;;;2.13;0.70;;;29.30;84.00;;;;;;5064469;28;20349;-78
2022/08/06 07:45:53;;;;;;;2.97;0.80;;;29.30;84.00;;;;;;5066615;28;20333;-77
2022/08/06 07:48:30;;;;;;;3.67;0.90;;;29.30;85.00;;;;;;5066564;28;20251;-77
2022/08/06 07:51:00;;;;;;;2.83;0.82;;;29.50;84.70;;;;;;5059495;28;20201;-76
2022/08/06 07:53:32;;;;;;;1.63;0.80;;;29.60;85.10;;;;;;5061570;28;20336;-78
2022/08/06 07:56:20;;;;;;;5.88;1.45;;;29.40;84.60;;;;;;5066542;28;20826;-79
2022/08/06 07:58:47;;;;;;;4.35;0.70;;;29.50;85.00;;;;;;5063882;28;20704;-80
2022/08/06 08:01:14;;;;;;;2.92;0.85;;;29.50;83.50;;;;;;5065996;28;20565;-79
2022/08/06 08:06:58;;;;;;;3.72;0.90;;;29.60;81.70;;;;;;5067450;28;20205;-80
2022/08/06 08:09:26;;;;;;;2.45;0.90;;;29.60;81.90;;;;;;5060833;28;20200;-79
2022/08/06 08:12:18;;;;;;;3.53;1.00;;;29.90;81.80;;;;;;5069506;28;20236;-80
2022/08/06 08:15:04;;;;;;;5.57;1.08;;;30.20;80.00;;;;;;5069434;28;20215;-79
2022/08/06 08:17:32;;;;;;;1.95;0.85;;;29.80;80.80;;;;;;5069931;28;20247;-78
2022/08/06 08:20:11;;;;;;;2.45;0.70;;;29.70;80.80;;;;;;5070018;28;20250;-78
2022/08/06 08:22:46;;;;;;;1.73;0.73;;;29.60;80.10;;;;;;5069809;28;20201;-78
2022/08/06 08:25:17;;;;;;;3.30;0.73;;;29.00;80.00;;;;;;5065652;28;20564;-80
2022/08/06 08:28:07;;;;;;;2.28;0.80;;;28.50;79.90;;;;;;5064357;28;20246;-79
2022/08/06 08:30:41;;;;;;;2.97;0.70;;;28.00;81.30;;;;;;5066444;28;20726;-78
2022/08/06 08:33:09;;;;;;;2.75;0.95;;;27.50;82.80;;;;;;5067891;28;20722;-78
2022/08/06 08:35:41;;;;;;;3.28;1.23;;;26.90;84.70;;;;;;5060653;28;20279;-77
2022/08/06 08:38:29;;;;;;;2.20;0.95;;;26.20;86.50;;;;;;5063622;28;20232;-77
2022/08/06 08:41:03;;;;;;;2.70;1.00;;;25.50;89.10;;;;;;5064858;28;20755;-77
2022/08/06 08:43:39;;;;;;;4.78;1.23;;;24.80;90.40;;;;;;5067722;28;20719;-78
2022/08/06 08:46:26;;;;;;;3.78;1.40;;;24.20;91.10;;;;;;5065509;28;20631;-77
2022/08/06 08:49:00;;;;;;;3.47;0.90;;;23.70;91.80;;;;;;5062231;28;20610;-76
2022/08/06 08:51:30;;;;;;;3.50;1.10;;;23.30;93.30;;;;;;5066600;28;20199;-78
2022/08/06 08:54:11;;;;;;;4.30;1.05;;;23.60;94.10;;;;;;5068494;28;20253;-78
2022/08/06 08:56:44;;;;;;;3.33;1.10;;;24.20;93.60;;;;;;5065579;28;20207;-78
2022/08/06 08:59:32;;;;;;;1.88;0.82;;;24.70;92.00;;;;;;5063622;28;20228;-77
2022/08/06 09:02:19;;;;;;;2.30;0.98;;;25.40;91.20;;;;;;5066158;28;20226;-79
2022/08/06 09:04:51;;;;;;;2.35;0.90;;;25.90;90.00;;;;;;5066531;28;20255;-76
2022/08/06 09:07:19;;;;;;;3.05;0.82;;;26.30;90.00;;;;;;5051300;28;20299;-78
2022/08/06 09:10:06;;;;;;;2.35;0.77;;;26.70;89.90;;;;;;5061148;28;20196;-77
2022/08/06 09:12:35;;;;;;;2.75;0.77;;;27.00;87.60;;;;;;5061493;28;20246;-76
2022/08/06 09:15:15;;;;;;;1.85;0.70;;;27.10;86.60;;;;;;5060566;28;20212;-76
2022/08/06 09:17:45;;;;;;;2.45;1.10;;;27.00;86.90;;;;;;5056845;28;20224;-76
2022/08/06 09:20:33;;;;;;;3.22;0.77;;;27.20;86.00;;;;;;5060994;28;20622;-77
2022/08/06 09:23:00;;;;;;;5.57;0.82;;;27.60;85.50;;;;;;5064829;28;20193;-77
2022/08/06 09:25:42;;;;;;;2.15;0.80;;;27.80;84.20;;;;;;5062847;28;20542;-76
2022/08/06 09:28:31;;;;;;;3.65;0.85;;;28.10;83.70;;;;;;5062071;28;20204;-76
2022/08/06 09:31:01;;;;;;;1.30;0.70;;;28.20;81.90;;;;;;5061524;28;20204;-78
2022/08/06 09:33:29;;;;;;;2.35;1.00;;;28.10;82.40;;;;;;5061760;28;20700;-77
2022/08/06 09:36:16;;;;;;;3.03;1.02;;;28.20;82.80;;;;;;5062163;28;20203;-77
2022/08/06 09:38:59;;;;;;;5.60;1.10;;;28.20;83.70;;;;;;5062798;28;20574;-78
2022/08/06 09:41:30;;;;;;;2.85;0.88;;;28.20;83.80;;;;;;5064539;28;20606;-75
2022/08/06 09:43:57;;;;;;;1.35;0.63;;;28.30;82.60;;;;;;5061594;28;20254;-75
2022/08/06 09:46:36;;;;;;;3.25;1.00;;;28.10;82.90;;;;;;5063230;28;20303;-75
2022/08/06 09:49:04;;;;;;;0.93;0.70;;;27.70;82.40;;;;;;5062543;28;20236;-77
2022/08/06 09:52:09;;;;;;;2.88;0.95;;;27.70;82.90;;;;;;5064100;28;20553;-76
2022/08/06 09:54:37;;;;;;;3.22;0.93;;;27.50;82.00;;;;;;5064262;28;20704;-76
2022/08/06 09:57:03;;;;;;;3.88;0.98;;;27.20;83.10;;;;;;5063086;28;20289;-77
2022/08/06 09:59:47;;;;;;;3.30;1.00;;;26.60;84.10;;;;;;5062843;28;20225;-76
2022/08/06 10:02:18;;;;;;;3.05;0.85;;;26.00;88.40;;;;;;5067265;28;20212;-76
2022/08/06 10:05:08;;;;;;;3.13;1.20;;;25.30;89.90;;;;;;5065390;28;20212;-75
2022/08/06 10:07:47;;;;;;;1.73;1.20;;;24.60;90.10;;;;;;5063210;28;20201;-76
2022/08/06 10:10:37;;;;;;;2.95;1.05;;;24.00;90.30;;;;;;5069217;28;20544;-76
2022/08/06 10:13:26;;;;;;;1.58;1.00;;;23.40;91.00;;;;;;5065130;28;20212;-75
2022/08/06 10:16:20;;;;;;;2.63;1.17;;;23.00;92.20;;;;;;5068142;28;20199;-75
2022/08/06 10:18:55;;;;;;;3.08;1.13;;;22.60;92.60;;;;;;5067151;28;20684;-75
2022/08/06 10:21:33;;;;;;;1.30;1.00;;;22.40;92.60;;;;;;5061286;28;20426;-76
2022/08/06 10:24:10;;;;;;;2.40;1.02;;;22.20;92.70;;;;;;5062680;28;20204;-75
2022/08/06 10:26:37;;;;;;;2.10;1.08;;;22.00;92.90;;;;;;5062688;28;20750;-76
2022/08/06 10:29:10;;;;;;;3.15;1.10;;;21.90;93.00;;;;;;5063368;28;20208;-78
2022/08/06 10:31:40;;;;;;;2.40;1.42;;;22.00;93.60;;;;;;5065698;28;20238;-77
2022/08/06 10:34:20;;;;;;;3.22;1.20;;;21.80;94.20;;;;;;5063063;28;20285;-78
2022/08/06 10:36:56;;;;;;;3.15;1.30;;;21.70;94.70;;;;;;5058569;28;20212;-77
2022/08/06 10:39:31;;;;;;;1.75;1.08;;;21.80;94.90;;;;;;5059435;28;20277;-76
2022/08/06 10:42:19;;;;;;;2.25;1.10;;;21.90;95.30;;;;;;5062973;28;20204;-77
2022/08/06 10:44:50;;;;;;;4.13;1.40;;;22.00;95.50;;;;;;5059981;28;20312;-77
2022/08/06 10:47:23;;;;;;;1.75;0.80;;;22.10;95.00;;;;;;5062396;28;20224;-78
2022/08/06 10:50:12;;;;;;;2.08;1.00;;;22.20;94.80;;;;;;5059036;28;20414;-78
2022/08/06 10:53:00;;;;;;;1.95;1.05;;;22.30;94.50;;;;;;5063862;28;20299;-76
2022/08/06 10:55:30;;;;;;;2.35;1.00;;;22.50;94.50;;;;;;5061289;28;20371;-79
2022/08/06 10:58:10;;;;;;;3.05;1.10;;;22.60;94.10;;;;;;5060246;28;20290;-79
2022/08/06 11:00:40;;;;;;;1.33;0.90;;;22.70;93.50;;;;;;5063213;28;20228;-76
2022/08/06 11:03:43;;;;;;;2.72;1.42;;;22.80;93.10;;;;;;5062517;28;20306;-78
2022/08/06 11:06:43;;;;;;;2.60;1.10;;;23.00;92.70;;;;;;5058493;28;20208;-79
2022/08/06 11:09:37;;;;;;;2.35;1.00;;;23.00;92.40;;;;;;5063001;28;20208;-76
2022/08/06 11:13:01;;;;;;;2.40;1.05;;;23.30;92.50;;;;;;5066579;28;20288;-78
2022/08/06 11:15:34;;;;;;;1.80;0.90;;;23.90;92.30;;;;;;5065911;28;20273;-76
2022/08/06 11:18:06;;;;;;;4.65;1.00;;;24.40;91.70;;;;;;5061093;28;20224;-76
2022/08/06 11:20:32;;;;;;;2.35;0.90;;;24.80;91.10;;;;;;5063065;28;20339;-77
2022/08/06 11:23:02;;;;;;;2.08;0.95;;;25.00;90.00;;;;;;5058957;28;20188;-78
2022/08/06 11:25:47;;;;;;;2.35;0.80;;;25.40;90.10;;;;;;5060024;28;20277;-75
2022/08/06 11:28:38;;;;;;;5.18;1.27;;;25.80;89.70;;;;;;5061810;28;20657;-76
2022/08/06 11:31:07;;;;;;;2.28;0.90;;;25.90;88.00;;;;;;5060442;28;20212;-76
2022/08/06 11:33:47;;;;;;;1.77;0.90;;;25.90;88.30;;;;;;5065895;28;20883;-75
2022/08/06 11:36:27;;;;;;;1.30;0.90;;;25.80;86.70;;;;;;5063176;28;20232;-77
2022/08/06 11:38:54;;;;;;;2.00;0.75;;;25.80;86.80;;;;;;5065798;28;20573;-77
2022/08/06 11:41:29;;;;;;;1.83;1.00;;;25.80;86.70;;;;;;5066176;28;20304;-76
2022/08/06 11:44:18;;;;;;;2.25;1.10;;;25.50;85.70;;;;;;5066017;28;20832;-76
2022/08/06 11:47:06;;;;;;;1.55;1.00;;;25.20;86.30;;;;;;5063629;28;20683;-77
2022/08/06 11:49:51;;;;;;;2.40;1.20;;;25.00;86.90;;;;;;5060978;28;20255;-76
2022/08/06 11:52:34;;;;;;;4.15;1.00;;;24.80;87.80;;;;;;5066981;28;20212;-77
2022/08/06 11:55:08;;;;;;;2.95;1.10;;;24.80;88.00;;;;;;5066345;28;20648;-76
2022/08/06 11:57:48;;;;;;;1.70;0.95;;;25.00;86.80;;;;;;5060290;28;20196;-77
2022/08/06 12:00:21;;;;;;;1.38;0.85;;;25.00;86.00;;;;;;5069370;28;20227;-77
2022/08/06 12:02:53;;;;;;;1.30;1.00;;;25.20;85.30;;;;;;5064368;28;20670;-79
2022/08/06 12:05:22;;;;;;;3.15;1.10;;;25.40;85.40;;;;;;5066617;28;20201;-76
2022/08/06 12:08:11;;;;;;;1.30;0.77;;;25.60;84.40;;;;;;5065321;28;20216;-77
2022/08/06 12:11:33;;;;;;;1.83;0.95;;;25.90;84.90;;;;;;5066612;28;20330;-77
2022/08/06 12:14:03;;;;;;;2.20;1.02;;;26.00;84.90;;;;;;5065083;28;20200;-80
2022/08/06 12:16:50;;;;;;;1.77;1.08;;;26.10;83.00;;;;;;5063359;28;20213;-77
2022/08/06 12:19:21;;;;;;;1.55;1.10;;;25.80;82.50;;;;;;5065435;28;20207;-77
2022/08/06 12:21:53;;;;;;;2.30;1.10;;;25.60;82.30;;;;;;5068115;28;20208;-76
2022/08/06 12:24:25;;;;;;;1.88;1.27;;;25.20;81.60;;;;;;5064889;28;20197;-77
2022/08/06 12:27:12;;;;;;;4.30;1.10;;;24.90;81.80;;;;;;5063722;28;20287;-77
2022/08/06 12:29:40;;;;;;;3.60;1.00;;;24.60;82.60;;;;;;5064539;28;20196;-77
2022/08/06 12:32:30;;;;;;;1.75;1.17;;;24.50;82.30;;;;;;5066041;28;20664;-78
2022/08/06 12:35:08;;;;;;;2.75;1.33;;;24.60;80.90;;;;;;5065299;28;20287;-78
2022/08/06 12:37:41;;;;;;;2.85;1.23;;;24.70;81.30;;;;;;5062844;28;20542;-79
2022/08/06 12:40:28;;;;;;;1.73;1.00;;;25.10;80.00;;;;;;5063141;28;20232;-77
2022/08/06 12:43:02;;;;;;;2.17;1.10;;;25.40;79.10;;;;;;5063480;28;20243;-77
2022/08/06 12:45:40;;;;;;;1.77;1.05;;;25.80;78.50;;;;;;5066119;28;20200;-76
2022/08/06 12:48:27;;;;;;;1.73;1.20;;;26.10;78.70;;;;;;5067561;28;20663;-77
2022/08/06 12:51:09;;;;;;;1.42;1.15;;;26.20;77.70;;;;;;5066100;28;20205;-78
2022/08/06 12:53:48;;;;;;;1.58;1.27;;;25.90;77.00;;;;;;5066478;28;20196;-78
2022/08/06 12:56:17;;;;;;;1.65;1.48;;;25.70;77.40;;;;;;5065036;28;20212;-77
2022/08/06 12:58:56;;;;;;;1.67;1.15;;;25.40;77.30;;;;;;5064613;28;20240;-78
2022/08/06 13:01:26;;;;;;;1.52;1.10;;;25.30;77.80;;;;;;5090410;28;20220;-78
2022/08/06 13:04:14;;;;;;;1.15;1.05;;;25.10;78.20;;;;;;5062830;28;20639;-79
2022/08/06 13:06:43;;;;;;;2.13;1.33;;;25.00;77.80;;;;;;5064019;28;20601;-77
2022/08/06 13:09:15;;;;;;;1.63;1.40;;;25.00;77.90;;;;;;5063796;28;20278;-77
2022/08/06 13:11:43;;;;;;;2.47;1.40;;;25.00;78.10;;;;;;5064552;28;20840;-78
2022/08/06 13:14:17;;;;;;;2.50;1.40;;;25.20;79.60;;;;;;5060381;28;20684;-79
2022/08/06 13:16:47;;;;;;;2.25;1.60;;;25.30;79.20;;;;;;5065077;28;20204;-78
2022/08/06 13:19:23;;;;;;;1.65;1.40;;;25.40;78.60;;;;;;5064108;28;20211;-79
2022/08/06 13:22:07;;;;;;;2.40;1.10;;;25.30;77.40;;;;;;5063908;28;20641;-76
2022/08/06 13:24:35;;;;;;;1.33;1.23;;;25.20;77.60;;;;;;5065460;28;20205;-77
2022/08/06 13:27:32;;;;;;;1.92;1.23;;;25.20;78.90;;;;;;5066361;28;20204;-77
2022/08/06 13:30:05;;;;;;;1.63;1.20;;;24.90;79.50;;;;;;5065157;28;20211;-76
2022/08/06 13:32:51;;;;;;;1.63;1.10;;;25.00;80.40;;;;;;5064165;28;20328;-76
2022/08/06 13:35:26;;;;;;;1.27;1.17;;;25.00;81.00;;;;;;5065008;28;20668;-76
2022/08/06 13:37:56;;;;;;;2.05;1.10;;;24.90;79.80;;;;;;5064550;28;20560;-77
2022/08/06 13:40:47;;;;;;;1.92;1.25;;;25.10;80.80;;;;;;5062156;28;20319;-76
2022/08/06 13:43:43;;;;;;;1.20;1.10;;;25.20;79.90;;;;;;5065140;28;20283;-77
2022/08/06 13:46:25;;;;;;;1.58;1.00;;;25.50;79.50;;;;;;5064379;28;20212;-77
2022/08/06 13:48:56;;;;;;;3.03;1.40;;;25.70;78.60;;;;;;5064567;28;20228;-79
2022/08/06 13:51:25;;;;;;;3.47;1.25;;;25.60;78.40;;;;;;5063521;28;20204;-75